Terminal Aerodrome Forecast
Issued by NWS

Home | Current Version | Previous Version | Graphics & Text | Print | Product List | Glossary On
Versions: 1 2 3 4 5 6 7 8 9 10 11 12 13 14 15 16 17 18 19
000
FTUS43 KGRB 220210 AAA
TAFATW
TAF AMD
KATW 220210Z 2202/2224 23006KT P6SM SCT025 OVC040
      TEMPO 2202/2206 6SM -SHRA BKN025
     FM220600 27008KT P6SM -SHRA SCT018 OVC035
     FM221100 29009KT P6SM BKN017
     FM221300 31011G17KT P6SM SCT030=

USA.gov is the U.S. government's official web portal to all federal, state and local government web resources and services.